Latest Weather Observations for Victoria River Downs

IDD60801

Issued at 1:05 pm CST Sunday 26 October 2014 (issued every 30 minutes, with the page automatically refreshed every 10 minutes)

About weather observations | Map of weather stations | Latest weather observations for NT | Other Formats
Station Details ID: 014825 Name: VICTORIA RIVER DOWNS Lat: -16.40 Lon: 131.01 Height: 88.5 m
Data from the previous 72 hours. | See also: Recent months at Victoria River Downs
Date/Time
CST
Temp
°C
App
Temp
°C
Dew
Point
Rel
Hum
%
Delta-T
°C
Wind Press
QNH
hPa
Press
MSL
hPa
Rain
since 9 am
mm
Dir
 
Spd
km/h
Gust
km/h
Spd
kts
Gust
kts
26/01:00pm 37.0 34.5 9.6 19 15.9 NNE 13 24 7 13 1011.8 - 0.0
26/12:30pm 36.5 33.1 10.6 21 15.3 NE 19 28 10 15 1012.6 - 0.0
26/12:00pm 35.6 32.8 12.5 24 13.9 NNE 19 32 10 17 1013.3 1012.6 0.0
26/11:30am 34.9 33.8 11.9 24 13.7 SSE 9 30 5 16 1013.6 - 0.0
26/11:00am 35.1 34.0 14.4 29 12.8 NE 13 24 7 13 1014.0 - 0.0
26/10:30am 33.8 32.7 14.3 31 12.0 N 13 20 7 11 1014.2 - 0.0
26/10:00am 33.0 30.7 13.1 30 12.0 N 17 30 9 16 1014.5 - 0.0
26/09:30am 32.2 30.3 12.9 31 11.6 N 15 28 8 15 1014.7 - 0.0
26/09:00am 31.3 29.5 12.2 31 11.3 NNW 13 20 7 11 1014.8 1014.1 0.0
26/08:30am 29.4 27.1 7.3 25 12.0 E 9 11 5 6 1014.9 - 0.0
26/08:00am 28.2 24.9 4.5 22 12.1 ENE 11 13 6 7 1014.7 - 0.0
26/07:30am 26.3 23.4 6.3 28 10.5 ENE 11 13 6 7 1014.4 - 0.0
26/07:00am 23.5 22.3 6.3 33 8.8 ENE 2 7 1 4 1013.8 - 0.0
26/06:30am 22.4 20.2 6.2 35 8.2 ENE 7 9 4 5 1013.4 - 0.0
26/06:00am 21.6 21.0 7.4 40 7.4 NE 0 0 0 0 1013.1 1012.3 0.0
26/05:30am 22.5 22.3 9.0 42 7.2 CALM 0 0 0 0 1012.7 - 0.0
26/05:00am 23.7 22.3 5.6 31 9.2 E 2 6 1 3 1012.5 - 0.0
26/04:30am 24.9 22.1 5.2 28 10.0 NE 9 9 5 5 1012.4 - 0.0
26/04:00am 24.7 21.9 5.0 28 10.0 NNE 9 13 5 7 1012.2 - 0.0
26/03:30am 25.2 22.3 4.9 27 10.3 NNE 9 11 5 6 1012.2 - 0.0
26/03:00am 25.3 22.6 5.5 28 10.1 NE 9 11 5 6 1012.3 1011.6 0.0
26/02:30am 24.0 21.3 5.4 30 9.4 NNE 9 11 5 6 1012.6 - 0.0
26/02:00am 24.9 23.1 5.2 28 10.0 N 4 9 2 5 1012.7 - 0.0
26/01:30am 27.5 24.3 5.1 24 11.5 E 11 15 6 8 1012.9 - 0.0
26/01:00am 26.0 23.1 6.6 29 10.2 ESE 11 15 6 8 1012.9 - 0.0
26/12:30am 24.6 22.6 7.3 33 9.1 SSE 7 11 4 6 1012.7 - 0.0
26/12:00am 24.3 21.8 6.6 32 9.2 ENE 9 13 5 7 1012.6 1011.9 0.0
 
Date/Time
CST
Temp
°C
App
Temp
°C
Dew
Point
Rel
Hum
%
Delta-T
°C
Wind Press
QNH
hPa
Press
MSL
hPa
Rain
since 9 am
mm
Dir
 
Spd
km/h
Gust
km/h
Spd
kts
Gust
kts
25/11:30pm 23.5 22.7 6.7 34 8.7 CALM 0 0 0 0 1012.5 - 0.0
25/11:00pm 24.9 23.8 10.0 39 8.2 E 6 7 3 4 1012.6 - 0.0
25/10:30pm 24.3 23.6 7.0 33 9.0 CALM 0 0 0 0 1012.6 - 0.0
25/10:00pm 25.6 24.7 10.6 39 8.4 SW 6 9 3 5 1012.3 - 0.0
25/09:30pm 25.8 24.4 8.8 34 9.3 WSW 6 9 3 5 1012.1 - 0.0
25/09:00pm 26.4 25.2 6.4 28 10.5 WSW 2 7 1 4 1012.1 1011.4 0.0
25/08:30pm 27.7 27.3 8.1 29 10.6 CALM 0 0 0 0 1011.8 - 0.0
25/08:00pm 28.9 28.4 10.6 32 10.4 SSW 4 7 2 4 1011.4 - 0.0
25/07:30pm 30.6 29.5 5.1 20 13.4 CALM 0 0 0 0 1011.0 - 0.0
25/07:00pm 32.8 31.6 4.6 17 14.9 CALM 0 0 0 0 1010.8 - 0.0
25/06:30pm 35.1 32.9 3.6 14 16.6 ESE 4 6 2 3 1010.5 - 0.0
25/06:00pm 36.9 33.9 4.0 13 17.6 ENE 9 11 5 6 1010.3 1009.7 0.0
25/05:30pm 37.3 33.6 4.3 13 17.7 E 13 17 7 9 1010.2 - 0.0
25/05:00pm 38.0 34.2 3.7 12 18.3 ENE 13 26 7 14 1010.0 - 0.0
25/04:30pm 37.9 35.2 5.8 14 17.7 E 9 15 5 8 1010.1 - 0.0
25/04:00pm 37.9 34.5 5.8 14 17.7 ESE 13 32 7 17 1010.5 - 0.0
25/03:30pm 37.0 34.8 6.1 15 17.1 ENE 7 13 4 7 1010.6 - 0.0
25/03:00pm 37.7 35.1 7.6 16 17.1 ENE 11 17 6 9 1011.0 1010.5 0.0
25/02:30pm 36.7 33.9 8.5 18 16.1 ENE 13 26 7 14 1011.6 - 0.0
25/02:00pm 36.4 33.5 8.3 18 16.0 ENE 13 24 7 13 1011.9 - 0.0
25/01:30pm 37.1 34.4 10.4 20 15.7 NE 15 28 8 15 1012.4 - 0.0
25/01:00pm 35.6 34.1 9.2 20 15.2 NNE 7 17 4 9 1013.0 - 0.0
25/12:30pm 35.8 34.2 11.4 23 14.5 N 11 19 6 10 1013.6 - 0.0
25/12:00pm 35.7 34.0 12.6 25 14.0 N 13 26 7 14 1014.3 1013.6 0.0
25/11:30am 34.7 32.6 12.4 26 13.4 NNE 15 28 8 15 1014.9 - 0.0
25/11:00am 34.0 32.0 14.0 30 12.3 N 17 32 9 17 1015.4 - 0.0
25/10:30am 33.7 32.4 14.7 32 11.8 N 15 26 8 14 1016.0 - 0.0
25/10:00am 32.5 31.1 15.5 36 10.6 N 17 26 9 14 1016.0 - 0.0
25/09:30am 31.8 30.2 16.1 38 9.9 NE 19 26 10 14 1016.2 - 0.0
25/09:00am 30.9 31.0 18.3 47 8.1 N 15 24 8 13 1016.2 1015.6 0.0
25/08:30am 30.0 28.8 14.1 37 9.6 NNE 13 19 7 10 1016.2 - 0.0
25/08:00am 28.9 26.0 8.0 27 11.4 NE 13 17 7 9 1016.1 - 0.0
25/07:30am 27.8 24.2 6.6 26 11.2 NE 15 20 8 11 1015.7 - 0.0
25/07:00am 26.3 23.9 6.9 29 10.2 ENE 9 13 5 7 1015.3 - 0.0
25/06:30am 24.9 22.0 6.6 31 9.5 ENE 11 15 6 8 1014.7 - 0.0
25/06:00am 24.6 22.3 7.3 33 9.1 E 9 13 5 7 1014.3 1013.6 0.0
25/05:30am 24.9 22.0 6.6 31 9.5 ENE 11 11 6 6 1014.0 - 0.0
25/05:00am 26.3 23.4 6.3 28 10.5 NE 11 11 6 6 1013.7 - 0.0
25/04:30am 26.4 23.8 5.9 27 10.6 NNE 9 9 5 5 1013.3 - 0.0
25/04:00am 27.3 24.7 6.1 26 11.1 NNE 9 11 5 6 1013.2 - 0.0
25/03:30am 27.0 24.1 6.4 27 10.8 NNE 11 13 6 7 1012.9 - 0.0
25/03:00am 27.7 25.1 5.9 25 11.4 NE 9 13 5 7 1012.7 1012.1 0.0
25/02:30am 29.0 25.6 5.8 23 12.2 NE 13 17 7 9 1012.7 - 0.0
25/02:00am 30.0 26.2 6.0 22 12.7 ENE 15 20 8 11 1012.6 - 0.0
25/01:30am 31.0 26.7 5.4 20 13.5 NE 17 26 9 14 1012.6 - 0.0
25/01:00am 31.4 27.2 5.8 20 13.7 ENE 17 26 9 14 1012.7 - 0.0
25/12:30am 27.4 25.6 9.3 32 10.0 SE 9 13 5 7 1012.4 - 0.0
25/12:00am 26.3 25.8 7.8 31 9.9 CALM 0 0 0 0 1011.8 1011.1 0.0
 
Date/Time
CST
Temp
°C
App
Temp
°C
Dew
Point
Rel
Hum
%
Delta-T
°C
Wind Press
QNH
hPa
Press
MSL
hPa
Rain
since 9 am
mm
Dir
 
Spd
km/h
Gust
km/h
Spd
kts
Gust
kts
24/11:30pm 26.4 25.5 7.9 31 9.9 WNW 2 9 1 5 1011.9 - 0.0
24/11:00pm 26.4 25.3 8.4 32 9.8 WNW 4 7 2 4 1012.0 - 0.0
24/10:30pm 26.2 25.6 10.4 37 8.9 NW 4 7 2 4 1011.9 - 0.0
24/10:00pm 26.4 25.7 6.9 29 10.3 CALM 0 0 0 0 1011.7 - 0.0
24/09:30pm 26.9 26.5 8.4 31 10.1 CALM 0 0 0 0 1011.4 - 0.0
24/09:00pm 27.9 28.1 10.6 34 9.8 CALM 0 0 0 0 1011.1 1010.5 0.0
24/08:30pm 28.6 28.2 11.2 34 10.0 E 4 7 2 4 1010.7 - 0.0
24/08:00pm 30.0 - 7.2 24 12.4 - - - - - 1010.4 - 0.0
24/07:30pm 31.6 30.8 6.6 21 13.5 CALM 0 0 0 0 1010.1 - 0.0
24/07:00pm 33.6 31.9 6.0 18 14.9 E 4 7 2 4 1009.7 - 0.0
24/06:30pm 36.4 34.1 5.6 15 16.8 E 7 11 4 6 1009.5 - 0.0
24/06:00pm 36.5 34.8 5.7 15 16.9 S 4 9 2 5 1009.3 1008.7 0.0
24/05:30pm 37.7 34.4 4.6 13 17.9 ENE 11 19 6 10 1009.2 - 0.0
24/05:00pm 37.7 34.8 4.6 13 17.9 E 9 13 5 7 1009.2 - 0.0
24/04:30pm 38.7 36.3 5.4 13 18.3 SE 7 11 4 6 1009.2 - 0.0
24/04:00pm 37.9 33.9 4.7 13 18.0 ESE 15 24 8 13 1009.4 - 0.0
24/03:30pm 37.8 35.1 5.7 14 17.7 NE 9 19 5 10 1009.7 - 0.0
24/03:00pm 38.2 33.7 6.0 14 17.9 NE 19 28 10 15 1010.1 1009.4 0.0
24/02:30pm 37.7 34.3 7.6 16 17.0 N 15 30 8 16 1010.4 - 0.0
24/02:00pm 37.0 32.9 8.8 18 16.2 NNE 20 33 11 18 1010.9 - 0.0
24/01:30pm 36.8 33.3 10.2 20 15.6 ENE 19 28 10 15 1011.2 - 0.0
24/01:00pm 36.4 34.5 11.9 23 14.7 ENE 13 22 7 12 1012.1 - 0.0
24/12:30pm 35.6 32.4 13.1 25 13.7 NE 22 37 12 20 1012.8 - 0.0
24/12:00pm 34.6 31.9 14.5 30 12.4 NNE 22 39 12 21 1013.4 1012.7 0.0
24/11:30am 34.9 33.7 16.2 32 11.9 N 17 32 9 17 1013.8 - 0.0
24/11:00am 34.3 32.7 16.6 34 11.3 N 20 32 11 17 1014.2 - 0.0
24/10:30am 32.8 31.1 16.2 37 10.5 N 20 30 11 16 1014.6 - 0.0
24/10:00am 32.6 31.3 16.8 38 10.0 NNE 19 28 10 15 1014.8 - 0.0
24/09:30am 31.9 31.6 17.4 42 9.3 N 15 28 8 15 1014.9 - 0.0
24/09:00am 30.6 30.3 17.3 45 8.5 N 15 22 8 12 1014.9 1014.1 0.0
24/08:30am 29.6 28.5 16.4 45 8.3 NNE 17 24 9 13 1014.7 - 0.0
24/08:00am 28.7 26.9 13.4 39 9.1 NNE 15 22 8 12 1014.4 - 0.0
24/07:30am 27.8 24.5 9.6 32 10.1 NE 17 26 9 14 1014.0 - 0.0
24/07:00am 26.6 24.2 8.6 32 9.8 NE 11 15 6 8 1013.8 - 0.0
24/06:30am 25.8 22.6 8.3 33 9.4 ENE 15 17 8 9 1013.5 - 0.0
24/06:00am 26.0 23.5 8.0 32 9.7 NE 11 13 6 7 1013.3 1012.6 0.0
24/05:30am 26.3 23.8 8.3 32 9.7 NE 11 15 6 8 1012.8 - 0.0
24/05:00am 26.4 23.6 8.4 32 9.8 NE 13 15 7 8 1012.5 - 0.0
24/04:30am 27.2 25.2 8.6 31 10.2 N 9 13 5 7 1012.5 - 0.0
24/04:00am 28.1 25.5 7.9 28 11.0 NE 11 15 6 8 1012.3 - 0.0
24/03:30am 28.5 24.7 7.7 27 11.3 ENE 17 24 9 13 1011.9 - 0.0
24/03:00am 28.6 25.1 5.5 23 12.1 ENE 13 17 7 9 1011.8 1011.1 0.0
24/02:30am 29.6 25.4 5.6 22 12.6 ENE 17 22 9 12 1011.8 - 0.0
24/02:17am 29.8 26.7 7.1 24 12.3 ENE 13 19 7 10 1011.8 - 0.0
24/02:00am 24.7 22.7 6.4 31 9.5 E 6 11 3 6 1011.8 - 0.0
24/01:30am 25.3 24.5 6.5 30 9.8 CALM 0 0 0 0 1011.9 - 0.0
24/01:00am 26.2 25.0 6.3 28 10.4 ENE 2 6 1 3 1012.0 - 0.0
24/12:30am 27.0 26.1 9.4 33 9.7 WSW 4 7 2 4 1012.1 - 0.0
24/12:00am 26.8 24.7 6.8 28 10.6 WNW 7 9 4 5 1012.2 1011.5 0.0
 
Date/Time
CST
Temp
°C
App
Temp
°C
Dew
Point
Rel
Hum
%
Delta-T
°C
Wind Press
QNH
hPa
Press
MSL
hPa
Rain
since 9 am
mm
Dir
 
Spd
km/h
Gust
km/h
Spd
kts
Gust
kts
23/11:30pm 27.2 26.4 11.2 36 9.1 SW 6 7 3 4 1012.3 - 0.0
23/11:00pm 27.1 25.4 7.5 29 10.5 NNE 6 9 3 5 1012.5 - 0.0
23/10:30pm 26.6 26.7 12.6 42 8.2 WSW 4 7 2 4 1012.3 - 0.0
23/10:00pm 27.2 26.1 10.0 34 9.6 W 6 7 3 4 1012.2 - 0.0
23/09:30pm 27.4 26.3 5.1 24 11.5 CALM 0 0 0 0 1011.8 - 0.0
23/09:00pm 28.4 25.4 4.0 21 12.4 NW 9 11 5 6 1011.4 1010.8 0.0
23/08:30pm 28.1 26.9 4.4 22 12.1 CALM 0 0 0 0 1011.1 - 0.0
23/08:00pm 29.2 28.1 5.3 22 12.5 CALM 0 0 0 0 1010.9 - 0.0
23/07:30pm 31.2 30.0 6.3 21 13.4 E 2 6 1 3 1010.6 - 0.0
23/07:00pm 33.6 31.0 3.4 15 15.7 ENE 6 7 3 4 1010.2 - 0.0
23/06:30pm 36.1 32.9 3.3 13 17.2 E 9 11 5 6 1009.7 - 0.0
23/06:00pm 37.3 33.3 3.1 12 18.1 E 13 19 7 10 1009.4 1008.8 0.0
23/05:30pm 37.8 33.8 4.7 13 18.0 ENE 15 26 8 14 1009.1 - 0.0
23/05:00pm 37.8 33.9 3.5 12 18.3 E 13 24 7 13 1009.0 - 0.0
23/04:30pm 38.6 34.7 5.3 13 18.3 NNE 15 26 8 14 1009.0 - 0.0
23/04:00pm 38.4 35.4 6.2 14 17.9 N 11 30 6 16 1009.3 - 0.0
23/03:30pm 38.5 34.2 5.2 13 18.3 ENE 17 28 9 15 1009.5 - 0.0
23/03:00pm 38.1 34.0 6.0 14 17.8 ENE 17 24 9 13 1009.7 1009.1 0.0
23/02:30pm 38.3 34.6 6.1 14 17.9 SE 15 26 8 14 1010.1 - 0.0
23/02:00pm 37.7 34.4 6.6 15 17.4 E 13 20 7 11 1010.6 - 0.0
23/01:30pm 37.7 33.0 7.6 16 17.0 ENE 22 30 12 16 1011.1 - 0.0

Other Formats:

Comma delimited format used in spreadsheet applications
http://www.bom.gov.au/fwo/IDD60801/IDD60801.94232.axf

JavaScript Object Notation format (JSON) in row-major order
http://www.bom.gov.au/fwo/IDD60801/IDD60801.94232.json